createdAt,value
2022-10-28T00:01:49.625Z,14.83
2022-10-28T00:04:20.245Z,14.87
2022-10-28T00:06:55.257Z,14.79
2022-10-28T00:09:26.228Z,14.81
2022-10-28T00:11:55.110Z,14.88
2022-10-28T00:14:23.415Z,14.81
2022-10-28T00:16:53.611Z,14.72
2022-10-28T00:19:22.027Z,14.76
2022-10-28T00:21:52.610Z,14.81
2022-10-28T00:24:21.221Z,14.79
2022-10-28T00:26:49.820Z,14.76
2022-10-28T00:29:21.101Z,14.87
2022-10-28T00:31:51.156Z,14.87
2022-10-28T00:34:24.361Z,14.98
2022-10-28T00:36:58.770Z,15.03
2022-10-28T00:39:30.325Z,15.00
2022-10-28T00:42:03.878Z,15.09
2022-10-28T00:44:57.316Z,15.01
2022-10-28T00:47:45.804Z,15.09
2022-10-28T00:50:21.701Z,15.15
2022-10-28T00:52:55.463Z,14.96
2022-10-28T00:55:25.327Z,14.95
2022-10-28T00:57:58.505Z,14.94
2022-10-28T01:00:29.370Z,14.91
2022-10-28T01:02:59.486Z,14.96
2022-10-28T01:05:32.883Z,15.10
2022-10-28T01:08:04.542Z,15.10
2022-10-28T01:10:59.694Z,15.20
2022-10-28T01:13:40.285Z,15.27
2022-10-28T01:16:23.635Z,15.15
2022-10-28T01:19:06.202Z,15.01
2022-10-28T01:21:56.094Z,15.11
2022-10-28T01:24:50.489Z,15.02
2022-10-28T01:27:54.584Z,15.06
2022-10-28T01:30:26.855Z,14.92
2022-10-28T01:33:08.148Z,14.82
2022-10-28T01:35:45.780Z,14.81
2022-10-28T01:38:29.074Z,14.86
2022-10-28T01:41:05.726Z,14.74
2022-10-28T01:43:42.091Z,14.71
2022-10-28T01:46:16.365Z,14.72
2022-10-28T01:48:50.589Z,14.97
2022-10-28T01:51:25.009Z,15.05
2022-10-28T01:53:58.734Z,15.18
2022-10-28T01:56:32.714Z,15.21
2022-10-28T01:59:03.733Z,15.25
2022-10-28T02:01:34.969Z,15.40
2022-10-28T02:04:07.774Z,15.29
2022-10-28T02:06:36.526Z,15.28
2022-10-28T02:09:26.497Z,15.34
2022-10-28T02:12:18.747Z,15.32
2022-10-28T02:15:27.420Z,15.42
2022-10-28T02:18:13.454Z,15.40
2022-10-28T02:20:51.892Z,15.41
2022-10-28T02:23:27.639Z,15.30
2022-10-28T02:26:01.849Z,15.42
2022-10-28T02:28:40.422Z,15.45
2022-10-28T02:31:24.175Z,15.39
2022-10-28T02:33:58.579Z,15.42
2022-10-28T02:36:35.785Z,14.71
2022-10-28T02:39:08.806Z,14.42
2022-10-28T02:41:43.170Z,14.56
2022-10-28T02:44:16.542Z,14.59
2022-10-28T02:46:48.730Z,14.67
2022-10-28T02:49:17.363Z,14.73
2022-10-28T02:51:50.877Z,14.78
2022-10-28T02:54:27.617Z,14.90
2022-10-28T02:57:04.338Z,15.02
2022-10-28T02:59:32.907Z,15.02
2022-10-28T03:02:01.695Z,15.00
2022-10-28T03:04:30.147Z,14.94
2022-10-28T03:07:00.146Z,14.78
2022-10-28T03:09:28.600Z,14.93
2022-10-28T03:11:57.064Z,15.02
2022-10-28T03:14:25.258Z,15.14
2022-10-28T03:16:53.625Z,15.32
2022-10-28T03:19:21.913Z,15.32
2022-10-28T03:21:50.555Z,15.29
2022-10-28T03:24:22.860Z,15.25
2022-10-28T03:26:51.670Z,15.26
2022-10-28T03:29:20.415Z,15.11
2022-10-28T03:31:49.506Z,15.17
2022-10-28T03:34:19.219Z,15.14
2022-10-28T03:36:47.994Z,15.17
2022-10-28T03:39:18.225Z,15.17
2022-10-28T03:41:48.316Z,15.21
2022-10-28T03:44:17.558Z,15.05
2022-10-28T03:46:46.202Z,15.04
2022-10-28T03:49:14.687Z,15.00
2022-10-28T03:51:43.175Z,14.95
2022-10-28T03:54:11.657Z,14.99
2022-10-28T03:56:40.783Z,15.03
2022-10-28T03:59:14.153Z,15.06
2022-10-28T04:01:45.154Z,15.03
2022-10-28T04:04:14.267Z,15.07
2022-10-28T04:06:42.950Z,14.95
2022-10-28T04:09:11.872Z,14.96
2022-10-28T04:11:40.095Z,14.95
2022-10-28T04:14:08.403Z,15.03
2022-10-28T04:16:39.927Z,15.11
2022-10-28T04:19:08.169Z,15.22
2022-10-28T04:21:36.590Z,15.27
2022-10-28T04:24:05.193Z,15.40
2022-10-28T04:26:34.472Z,15.52
2022-10-28T04:29:02.799Z,15.59
2022-10-28T04:31:32.129Z,15.60
2022-10-28T04:34:02.204Z,15.71
2022-10-28T04:36:30.729Z,15.68
2022-10-28T04:38:58.927Z,15.74
2022-10-28T04:41:28.019Z,15.76
2022-10-28T04:43:56.802Z,15.71
2022-10-28T04:46:26.285Z,15.71
2022-10-28T04:48:54.424Z,15.67
2022-10-28T04:51:24.829Z,15.74
2022-10-28T04:53:53.557Z,15.49
2022-10-28T04:56:22.243Z,15.38
2022-10-28T04:58:50.914Z,15.33
2022-10-28T05:01:19.655Z,15.53
2022-10-28T05:03:48.297Z,15.32
2022-10-28T05:06:17.287Z,15.32
2022-10-28T05:08:48.499Z,15.52
2022-10-28T05:11:16.994Z,15.47
2022-10-28T05:13:45.757Z,15.49
2022-10-28T05:16:18.016Z,15.44
2022-10-28T05:18:47.425Z,15.45
2022-10-28T05:21:15.584Z,15.45
2022-10-28T05:23:44.059Z,15.42
2022-10-28T05:26:14.970Z,15.44
2022-10-28T05:28:43.927Z,15.43
2022-10-28T05:31:12.282Z,15.30
2022-10-28T05:33:41.267Z,15.26
2022-10-28T05:36:09.873Z,15.03
2022-10-28T05:38:40.304Z,15.09
2022-10-28T05:41:12.517Z,14.97
2022-10-28T05:43:42.572Z,14.80
2022-10-28T05:46:11.349Z,14.89
2022-10-28T05:48:42.746Z,14.85
2022-10-28T05:51:11.154Z,14.73
2022-10-28T05:53:41.778Z,14.87
2022-10-28T05:56:10.595Z,14.57
2022-10-28T05:58:39.098Z,14.53
2022-10-28T06:01:09.989Z,14.60
2022-10-28T06:03:38.549Z,14.63
2022-10-28T06:06:11.396Z,14.62
2022-10-28T06:08:39.635Z,14.54
2022-10-28T06:11:06.450Z,14.63
2022-10-28T06:13:35.701Z,14.61
2022-10-28T06:16:04.311Z,14.66
2022-10-28T06:18:34.111Z,14.79
2022-10-28T06:21:02.446Z,14.82
2022-10-28T06:23:31.131Z,14.70
2022-10-28T06:26:01.061Z,14.83
2022-10-28T06:28:29.677Z,14.90
2022-10-28T06:31:02.085Z,14.92
2022-10-28T06:33:30.392Z,14.87
2022-10-28T06:36:00.846Z,14.99
2022-10-28T06:38:29.905Z,14.92
2022-10-28T06:40:59.361Z,14.98
2022-10-28T06:43:27.934Z,15.03
2022-10-28T06:45:56.412Z,15.10
2022-10-28T06:48:26.399Z,15.02
2022-10-28T06:50:57.996Z,15.02
2022-10-28T06:53:27.996Z,14.73
2022-10-28T06:55:57.225Z,14.81
2022-10-28T06:58:26.606Z,14.98
2022-10-28T07:00:55.617Z,15.05
2022-10-28T07:03:24.357Z,15.13
2022-10-28T07:05:54.390Z,14.97
2022-10-28T07:08:22.491Z,15.09
2022-10-28T07:10:57.515Z,14.77
2022-10-28T07:13:26.323Z,14.69
2022-10-28T07:15:55.231Z,15.03
2022-10-28T07:18:24.105Z,15.09
2022-10-28T07:20:52.623Z,15.03
2022-10-28T07:23:21.687Z,15.14
2022-10-28T07:25:54.621Z,15.33
2022-10-28T07:28:26.805Z,15.40
2022-10-28T07:30:55.326Z,15.44
2022-10-28T07:33:23.797Z,15.43
2022-10-28T07:35:52.225Z,15.48
2022-10-28T07:38:20.575Z,15.44
2022-10-28T07:40:48.904Z,15.46
2022-10-28T07:43:17.331Z,15.58
2022-10-28T07:45:47.069Z,15.66
2022-10-28T07:48:16.144Z,15.65
2022-10-28T07:50:44.881Z,15.65
2022-10-28T07:53:13.257Z,15.66
2022-10-28T07:55:41.690Z,15.69
2022-10-28T07:58:10.101Z,15.73
2022-10-28T08:00:38.657Z,15.73
2022-10-28T08:03:14.317Z,15.81
2022-10-28T08:05:42.672Z,15.79
2022-10-28T08:08:10.868Z,15.80
2022-10-28T08:10:39.651Z,15.85
2022-10-28T08:13:08.280Z,15.89
2022-10-28T08:15:36.381Z,16.01
2022-10-28T08:18:04.510Z,16.11
2022-10-28T08:20:34.386Z,16.13
2022-10-28T08:23:05.296Z,16.22
2022-10-28T08:25:35.884Z,16.19
2022-10-28T08:28:04.698Z,16.28
2022-10-28T08:30:40.312Z,16.32
2022-10-28T08:33:22.225Z,16.48
2022-10-28T08:35:55.104Z,16.51
2022-10-28T08:38:23.899Z,16.38
2022-10-28T08:40:58.928Z,16.63
2022-10-28T08:43:52.910Z,16.38
2022-10-28T08:46:34.778Z,16.38
2022-10-28T08:49:04.753Z,16.35
2022-10-28T08:51:43.624Z,16.73
2022-10-28T08:54:18.970Z,16.69
2022-10-28T08:56:51.081Z,16.84
2022-10-28T08:59:24.088Z,16.90
2022-10-28T09:01:58.280Z,17.15
2022-10-28T09:04:37.335Z,17.15
2022-10-28T09:07:15.723Z,17.09
2022-10-28T09:09:45.142Z,17.05
2022-10-28T09:12:26.198Z,17.25
2022-10-28T09:15:11.440Z,17.27
2022-10-28T09:17:50.071Z,17.43
2022-10-28T09:20:21.906Z,17.63
2022-10-28T09:22:58.277Z,17.61
2022-10-28T09:25:34.636Z,17.66
2022-10-28T09:28:22.357Z,17.63
2022-10-28T09:30:59.901Z,17.52
2022-10-28T09:33:51.041Z,17.57
2022-10-28T09:36:27.182Z,17.49
2022-10-28T09:39:02.288Z,17.50
2022-10-28T09:41:34.676Z,17.54
2022-10-28T09:44:10.073Z,17.54
2022-10-28T09:46:40.651Z,17.56
2022-10-28T09:49:18.802Z,17.67
2022-10-28T09:51:51.851Z,17.71
2022-10-28T09:54:30.302Z,17.71
2022-10-28T09:56:58.548Z,17.80
2022-10-28T09:59:27.040Z,17.86
2022-10-28T10:01:56.102Z,17.85
2022-10-28T10:04:26.780Z,17.92
2022-10-28T10:06:59.485Z,17.83
2022-10-28T10:09:36.019Z,17.99
2022-10-28T10:12:07.871Z,17.98
2022-10-28T10:14:42.191Z,18.30
2022-10-28T10:17:16.539Z,18.31
2022-10-28T10:20:03.336Z,18.29
2022-10-28T10:22:34.432Z,18.45
2022-10-28T10:25:05.318Z,18.32
2022-10-28T10:27:33.572Z,18.23
2022-10-28T10:30:02.410Z,18.22
2022-10-28T10:32:33.938Z,18.49
2022-10-28T10:35:06.890Z,18.93
2022-10-28T10:37:37.616Z,19.08
2022-10-28T10:40:19.815Z,18.96
2022-10-28T10:43:09.815Z,18.82
2022-10-28T10:45:37.609Z,18.81
2022-10-28T10:48:13.405Z,18.87
2022-10-28T10:50:42.866Z,18.77
2022-10-28T10:53:22.096Z,18.92
2022-10-28T10:55:55.246Z,18.65
2022-10-28T10:58:26.021Z,19.12
2022-10-28T11:00:57.246Z,19.12
2022-10-28T11:03:28.867Z,19.47
2022-10-28T11:06:21.939Z,19.48
2022-10-28T11:08:48.226Z,19.44
2022-10-28T11:11:24.770Z,19.84
2022-10-28T11:14:06.001Z,19.79
2022-10-28T11:16:34.587Z,19.89
2022-10-28T11:19:20.813Z,20.23
2022-10-28T11:22:02.707Z,20.42
2022-10-28T11:24:50.774Z,20.34
2022-10-28T11:27:33.098Z,20.33
2022-10-28T11:30:02.579Z,20.39
2022-10-28T11:32:54.680Z,20.46
2022-10-28T11:35:44.242Z,20.53
2022-10-28T11:38:24.325Z,19.82
2022-10-28T11:41:07.366Z,19.83
2022-10-28T11:43:47.667Z,19.69
2022-10-28T11:46:32.298Z,19.79
2022-10-28T11:49:38.668Z,19.81
2022-10-28T11:52:19.618Z,20.09
2022-10-28T11:55:03.447Z,20.22
2022-10-28T11:57:45.982Z,20.13
2022-10-28T12:00:50.216Z,20.03
2022-10-28T12:03:42.273Z,20.37
2022-10-28T12:06:17.663Z,20.53
2022-10-28T12:09:01.230Z,20.82
2022-10-28T12:11:41.088Z,20.70
2022-10-28T12:14:22.348Z,20.76
2022-10-28T12:17:00.733Z,20.70
2022-10-28T12:19:43.644Z,20.84
2022-10-28T12:22:18.065Z,20.65
2022-10-28T12:24:48.488Z,20.38
2022-10-28T12:27:23.696Z,20.56
2022-10-28T12:30:01.295Z,20.72
2022-10-28T12:32:34.445Z,20.73
2022-10-28T12:35:11.876Z,20.63
2022-10-28T12:37:47.790Z,20.77
2022-10-28T12:40:20.895Z,20.84
2022-10-28T12:42:59.527Z,20.90
2022-10-28T12:45:31.498Z,20.96
2022-10-28T12:48:06.583Z,21.16
2022-10-28T12:50:41.687Z,21.24
2022-10-28T12:53:26.189Z,21.55
2022-10-28T12:55:59.539Z,21.59
2022-10-28T12:58:34.138Z,22.08
2022-10-28T13:03:32.805Z,22.17
2022-10-28T13:06:24.199Z,22.18
2022-10-28T13:09:20.667Z,22.38
2022-10-28T13:12:24.927Z,22.42
2022-10-28T13:15:19.333Z,22.30
2022-10-28T13:18:05.296Z,22.41
2022-10-28T13:20:48.088Z,22.28
2022-10-28T13:23:42.160Z,22.16
2022-10-28T13:26:23.056Z,21.97
2022-10-28T13:28:54.018Z,21.93
2022-10-28T13:31:22.747Z,21.66
2022-10-28T13:33:56.270Z,21.88
2022-10-28T13:36:28.780Z,21.95
2022-10-28T13:39:02.054Z,22.10
2022-10-28T13:41:36.529Z,22.12
2022-10-28T13:44:24.529Z,21.92
2022-10-28T13:47:34.856Z,22.12
2022-10-28T13:50:17.283Z,22.24
2022-10-28T13:52:46.943Z,22.16
2022-10-28T13:55:44.207Z,22.33
2022-10-28T13:58:24.045Z,22.99
2022-10-28T14:00:53.651Z,23.20
2022-10-28T14:03:25.195Z,23.39
2022-10-28T14:05:57.979Z,23.45
2022-10-28T14:08:31.195Z,23.36
2022-10-28T14:11:06.638Z,22.97
2022-10-28T14:13:38.852Z,22.74
2022-10-28T14:16:23.772Z,22.62
2022-10-28T14:19:06.108Z,22.78
2022-10-28T14:21:48.248Z,23.07
2022-10-28T14:24:34.453Z,23.10
2022-10-28T14:27:34.584Z,22.93
2022-10-28T14:30:23.298Z,22.70
2022-10-28T14:33:20.472Z,22.36
2022-10-28T14:35:55.642Z,22.14
2022-10-28T14:39:10.739Z,21.93
2022-10-28T14:42:04.744Z,21.86
2022-10-28T14:45:02.791Z,21.86
2022-10-28T14:48:09.360Z,22.54
2022-10-28T14:50:42.340Z,22.56
2022-10-28T14:53:23.436Z,22.73
2022-10-28T14:56:00.618Z,22.69
2022-10-28T14:58:32.075Z,22.72
2022-10-28T15:01:29.141Z,22.68
2022-10-28T15:04:02.325Z,22.61
2022-10-28T15:06:38.187Z,22.42
2022-10-28T15:09:14.888Z,22.19
2022-10-28T15:11:47.212Z,21.95
2022-10-28T15:14:25.080Z,21.82
2022-10-28T15:16:57.176Z,21.61
2022-10-28T15:19:28.777Z,21.50
2022-10-28T15:22:07.048Z,21.38
2022-10-28T15:24:37.177Z,21.13
2022-10-28T15:27:08.653Z,21.21
2022-10-28T15:29:42.211Z,20.99
2022-10-28T15:32:29.526Z,20.97
2022-10-28T15:34:59.604Z,20.85
2022-10-28T15:37:32.843Z,20.67
2022-10-28T15:40:23.736Z,20.68
2022-10-28T15:42:55.127Z,20.60
2022-10-28T15:45:27.230Z,20.62
2022-10-28T15:47:59.150Z,20.57
2022-10-28T15:50:30.914Z,20.54
2022-10-28T15:53:34.860Z,20.51
2022-10-28T15:56:26.007Z,20.42
2022-10-28T15:59:14.501Z,20.33
2022-10-28T16:01:43.663Z,20.26
2022-10-28T16:04:47.161Z,20.20
2022-10-28T16:07:15.613Z,20.12
2022-10-28T16:09:46.438Z,20.12
2022-10-28T16:12:19.627Z,20.12
2022-10-28T16:14:55.335Z,20.05
2022-10-28T16:17:27.316Z,19.97
2022-10-28T16:20:00.641Z,19.89
2022-10-28T16:22:32.440Z,19.79
2022-10-28T16:25:02.326Z,19.79
2022-10-28T16:27:33.698Z,19.73
2022-10-28T16:30:02.187Z,19.65
2022-10-28T16:32:38.421Z,19.55
2022-10-28T16:35:16.889Z,19.42
2022-10-28T16:37:49.360Z,19.64
2022-10-28T16:40:45.630Z,19.63
2022-10-28T16:43:07.939Z,19.50
2022-10-28T16:45:36.236Z,19.56
2022-10-28T16:48:04.536Z,19.42
2022-10-28T16:50:34.392Z,19.35
2022-10-28T16:53:03.119Z,19.38
2022-10-28T16:55:31.736Z,19.37
2022-10-28T16:58:01.545Z,19.31
2022-10-28T17:00:30.172Z,19.38
2022-10-28T17:02:58.917Z,19.43
2022-10-28T17:05:27.416Z,19.40
2022-10-28T17:07:58.508Z,19.28
2022-10-28T17:10:30.261Z,19.20
2022-10-28T17:12:59.159Z,19.24
2022-10-28T17:15:27.538Z,19.19
2022-10-28T17:17:56.061Z,19.13
2022-10-28T17:20:25.099Z,19.13
2022-10-28T17:22:53.624Z,19.06
2022-10-28T17:25:23.921Z,19.00
2022-10-28T17:27:54.212Z,18.95
2022-10-28T17:30:23.560Z,18.81
2022-10-28T17:32:53.984Z,18.78
2022-10-28T17:35:25.398Z,18.79
2022-10-28T17:37:58.512Z,18.71
2022-10-28T17:40:32.261Z,18.63
2022-10-28T17:43:02.516Z,18.65
2022-10-28T17:45:30.873Z,18.58
2022-10-28T17:48:00.939Z,18.69
2022-10-28T17:50:29.207Z,18.60
2022-10-28T17:52:58.449Z,18.58
2022-10-28T17:55:28.916Z,18.46
2022-10-28T17:57:58.568Z,18.56
2022-10-28T18:00:27.471Z,18.46
2022-10-28T18:02:57.666Z,18.39
2022-10-28T18:05:26.240Z,18.23
2022-10-28T18:07:56.984Z,18.33
2022-10-28T18:10:25.884Z,18.28
2022-10-28T18:12:56.320Z,18.22
2022-10-28T18:15:25.114Z,18.19
2022-10-28T18:17:53.862Z,18.29
2022-10-28T18:20:22.327Z,18.23
2022-10-28T18:22:50.553Z,18.08
2022-10-28T18:25:19.026Z,18.17
2022-10-28T18:27:47.384Z,18.14
2022-10-28T18:30:17.262Z,18.07
2022-10-28T18:32:45.679Z,18.05
2022-10-28T18:35:14.783Z,18.07
2022-10-28T18:37:43.488Z,17.81
2022-10-28T18:40:12.661Z,17.87
2022-10-28T18:42:41.603Z,17.73
2022-10-28T18:45:10.988Z,17.73
2022-10-28T18:47:40.661Z,17.76
2022-10-28T18:50:09.831Z,17.92
2022-10-28T18:52:38.211Z,17.80
2022-10-28T18:55:07.659Z,17.61
2022-10-28T18:57:36.183Z,17.61
2022-10-28T19:00:23.422Z,17.44
2022-10-28T19:05:22.660Z,17.19
2022-10-28T19:07:50.857Z,17.07
2022-10-28T19:10:20.309Z,17.17
2022-10-28T19:12:52.791Z,17.07
2022-10-28T19:15:23.901Z,17.08
2022-10-28T19:17:55.884Z,17.04
2022-10-28T19:20:28.394Z,17.08
2022-10-28T19:22:57.390Z,17.14
2022-10-28T19:25:26.095Z,17.08
2022-10-28T19:27:54.959Z,17.07
2022-10-28T19:30:23.280Z,17.23
2022-10-28T19:32:51.464Z,17.18
2022-10-28T19:35:21.619Z,17.06
2022-10-28T19:37:54.238Z,17.10
2022-10-28T19:40:22.730Z,16.85
2022-10-28T19:42:54.702Z,17.00
2022-10-28T19:45:23.535Z,17.00
2022-10-28T19:47:52.361Z,17.03
2022-10-28T19:50:22.338Z,16.94
2022-10-28T19:52:52.346Z,17.04
2022-10-28T19:55:21.249Z,17.00
2022-10-28T19:57:51.981Z,16.97
2022-10-28T20:00:22.167Z,16.79
2022-10-28T20:02:50.857Z,17.19
2022-10-28T20:05:19.574Z,17.03
2022-10-28T20:07:57.433Z,16.85
2022-10-28T20:10:26.011Z,16.89
2022-10-28T20:12:54.552Z,16.69
2022-10-28T20:15:25.073Z,16.56
2022-10-28T20:17:53.160Z,16.62
2022-10-28T20:20:21.541Z,16.66
2022-10-28T20:22:51.440Z,16.69
2022-10-28T20:25:19.843Z,16.79
2022-10-28T20:27:48.268Z,16.78
2022-10-28T20:30:16.817Z,16.71
2022-10-28T20:32:45.671Z,16.73
2022-10-28T20:35:14.153Z,16.86
2022-10-28T20:37:42.475Z,16.87
2022-10-28T20:40:14.150Z,16.81
2022-10-28T20:42:43.104Z,16.79
2022-10-28T20:45:12.045Z,16.55
2022-10-28T20:47:40.528Z,16.51
2022-10-28T20:50:10.287Z,16.58
2022-10-28T20:52:38.760Z,16.67
2022-10-28T20:55:08.316Z,16.69
2022-10-28T20:57:38.597Z,16.74
2022-10-28T21:00:08.299Z,16.65
2022-10-28T21:02:38.272Z,16.62
2022-10-28T21:05:07.786Z,16.58
2022-10-28T21:07:36.290Z,16.62
2022-10-28T21:10:04.585Z,16.74
2022-10-28T21:12:33.260Z,16.79
2022-10-28T21:15:04.086Z,16.90
2022-10-28T21:17:32.321Z,17.05
2022-10-28T21:22:35.362Z,17.00
2022-10-28T21:25:06.237Z,16.96
2022-10-28T21:27:34.654Z,16.88
2022-10-28T21:30:04.948Z,16.92
2022-10-28T21:32:37.299Z,16.57
2022-10-28T21:35:06.617Z,16.49
2022-10-28T21:37:35.495Z,15.92
2022-10-28T21:40:03.939Z,16.21
2022-10-28T21:42:32.517Z,16.05
2022-10-28T21:45:00.903Z,16.13
2022-10-28T21:47:33.184Z,16.37
2022-10-28T21:50:02.235Z,16.33
2022-10-28T21:52:30.694Z,16.47
2022-10-28T21:54:59.534Z,16.48
2022-10-28T21:57:34.944Z,16.55
2022-10-28T22:00:04.063Z,16.41
2022-10-28T22:02:34.224Z,16.37
2022-10-28T22:05:02.818Z,16.28
2022-10-28T22:07:31.962Z,16.32
2022-10-28T22:10:00.369Z,16.37
2022-10-28T22:12:31.035Z,16.36
2022-10-28T22:14:59.886Z,16.38
2022-10-28T22:17:29.605Z,16.23
2022-10-28T22:19:59.235Z,16.12
2022-10-28T22:22:30.300Z,16.10
2022-10-28T22:24:58.460Z,16.03
2022-10-28T22:27:26.667Z,16.07
2022-10-28T22:29:55.292Z,15.93
2022-10-28T22:32:23.454Z,15.83
2022-10-28T22:34:51.822Z,15.77
2022-10-28T22:37:21.698Z,15.73
2022-10-28T22:39:50.589Z,15.85
2022-10-28T22:42:19.338Z,15.96
2022-10-28T22:44:49.191Z,15.80
2022-10-28T22:47:20.471Z,15.74
2022-10-28T22:49:51.077Z,15.65
2022-10-28T22:52:22.402Z,15.75
2022-10-28T22:54:52.272Z,15.71
2022-10-28T22:57:20.850Z,15.73
2022-10-28T22:59:49.023Z,15.74
2022-10-28T23:02:17.355Z,15.73
2022-10-28T23:04:45.663Z,15.63
2022-10-28T23:07:14.027Z,15.54
2022-10-28T23:09:44.278Z,15.50
2022-10-28T23:12:12.655Z,15.67
2022-10-28T23:14:41.187Z,15.72
2022-10-28T23:17:10.328Z,15.73
2022-10-28T23:19:38.906Z,15.84
2022-10-28T23:22:07.930Z,15.88
2022-10-28T23:24:37.195Z,15.92
2022-10-28T23:27:08.527Z,15.81
2022-10-28T23:29:36.845Z,15.74
2022-10-28T23:32:06.235Z,15.80
2022-10-28T23:34:34.806Z,15.70
2022-10-28T23:37:05.689Z,15.74
2022-10-28T23:39:34.930Z,15.90
2022-10-28T23:42:03.238Z,15.88
2022-10-28T23:44:34.287Z,15.97
2022-10-28T23:47:03.336Z,15.94
2022-10-28T23:49:31.861Z,15.75
2022-10-28T23:52:01.113Z,15.50
2022-10-28T23:54:29.981Z,15.59
2022-10-28T23:56:58.118Z,15.43
2022-10-28T23:59:26.436Z,15.48
